Time;durP1;ratioP1;P1;durP2;ratioP2;P2;SDS_P1;SDS_P2;PMS_P1;PMS_P2;Temp;Humidity;BMP_temperature;BMP_pressure;BME280_temperature;BME280_humidity;BME280_pressure;Samples;Min_cycle;Max_cycle;Signal;HPM_P1;HPM_P2
2022/12/07 00:00:41;;;;;;;1.88;1.05;;;4.10;99.90;;;;;;5032931;28;20043;-73
2022/12/07 00:03:07;;;;;;;4.82;0.52;;;4.00;99.90;;;;;;5046578;28;20112;-73
2022/12/07 00:05:32;;;;;;;0.45;0.17;;;4.00;99.90;;;;;;5030050;28;20064;-73
2022/12/07 00:07:58;;;;;;;1.70;0.85;;;4.00;99.90;;;;;;5015984;28;20037;-73
2022/12/07 00:10:24;;;;;;;4.82;1.08;;;4.00;99.90;;;;;;5025992;28;20041;-73
2022/12/07 00:12:50;;;;;;;5.28;0.75;;;4.00;99.90;;;;;;5045608;28;20052;-73
2022/12/07 00:15:15;;;;;;;0.73;0.40;;;4.00;99.90;;;;;;5035297;28;20065;-73
2022/12/07 00:17:41;;;;;;;1.08;0.40;;;4.00;99.90;;;;;;5032864;28;20029;-73
2022/12/07 00:20:07;;;;;;;1.75;0.20;;;4.00;99.90;;;;;;5050327;28;20427;-73
2022/12/07 00:22:32;;;;;;;3.17;0.30;;;4.10;99.90;;;;;;5015792;28;20033;-73
2022/12/07 00:24:58;;;;;;;0.65;0.30;;;4.10;99.90;;;;;;5039496;28;20041;-73
2022/12/07 00:27:23;;;;;;;4.45;0.77;;;4.10;99.90;;;;;;5046807;28;20644;-73
2022/12/07 00:29:49;;;;;;;3.65;0.90;;;4.10;99.90;;;;;;5044095;28;20091;-73
2022/12/07 00:32:15;;;;;;;1.58;0.55;;;4.10;99.90;;;;;;5037760;28;20096;-73
2022/12/07 00:34:40;;;;;;;3.63;0.30;;;4.10;99.90;;;;;;5032094;28;20048;-73
2022/12/07 00:37:06;;;;;;;5.10;1.08;;;4.10;99.90;;;;;;5036073;28;20041;-74
2022/12/07 00:39:31;;;;;;;0.70;0.40;;;4.10;99.90;;;;;;5036148;28;20029;-73
2022/12/07 00:41:57;;;;;;;0.43;0.40;;;4.10;99.90;;;;;;5052241;28;20064;-73
2022/12/07 00:44:22;;;;;;;1.52;0.30;;;4.00;99.90;;;;;;5059547;28;20041;-73
2022/12/07 00:46:48;;;;;;;2.10;0.40;;;4.10;99.90;;;;;;5030767;28;20037;-73
2022/12/07 00:49:14;;;;;;;1.80;0.73;;;4.10;99.90;;;;;;5017184;28;20094;-73
2022/12/07 00:51:39;;;;;;;7.90;0.50;;;4.00;99.90;;;;;;5038162;28;20028;-73
2022/12/07 00:54:05;;;;;;;0.65;0.32;;;4.00;99.90;;;;;;5016225;28;20055;-73
2022/12/07 00:56:31;;;;;;;0.80;0.38;;;4.00;99.90;;;;;;5018135;28;20041;-73
2022/12/07 00:59:02;;;;;;;0.25;0.20;;;4.00;99.90;;;;;;5041973;28;20598;-74
2022/12/07 01:01:32;;;;;;;0.73;0.20;;;4.00;99.90;;;;;;5015998;28;20045;-73
2022/12/07 01:03:58;;;;;;;5.00;0.80;;;4.00;99.90;;;;;;5022202;28;20041;-73
2022/12/07 01:06:25;;;;;;;0.52;0.30;;;3.90;99.90;;;;;;5052032;28;20040;-73
2022/12/07 01:08:50;;;;;;;1.30;0.40;;;3.90;99.90;;;;;;5042765;28;20037;-73
2022/12/07 01:11:20;;;;;;;8.57;1.00;;;3.90;99.90;;;;;;5044635;28;20040;-73
2022/12/07 01:13:46;;;;;;;1.63;0.55;;;3.90;99.90;;;;;;5040963;28;20107;-73
2022/12/07 01:16:14;;;;;;;2.50;0.63;;;3.90;99.90;;;;;;5017230;28;20049;-73
2022/12/07 01:18:40;;;;;;;0.50;0.50;;;3.90;99.90;;;;;;5036635;28;20034;-73
2022/12/07 01:21:12;;;;;;;0.20;0.10;;;3.80;99.90;;;;;;5034603;28;20491;-74
2022/12/07 01:23:38;;;;;;;2.13;0.32;;;3.80;99.90;;;;;;5037406;28;20081;-73
2022/12/07 01:26:09;;;;;;;1.95;0.30;;;3.80;99.90;;;;;;5018698;28;20049;-73
2022/12/07 01:28:35;;;;;;;0.85;0.10;;;3.80;99.90;;;;;;5024691;28;20048;-73
2022/12/07 01:31:09;;;;;;;0.63;0.30;;;3.80;99.90;;;;;;5052124;28;20037;-74
2022/12/07 01:33:36;;;;;;;0.30;0.20;;;3.80;99.90;;;;;;5037037;28;20037;-73
2022/12/07 01:36:16;;;;;;;6.50;0.82;;;3.80;99.90;;;;;;5040068;28;20045;-73
2022/12/07 01:38:43;;;;;;;1.05;0.77;;;3.80;99.90;;;;;;5035525;28;20069;-73
2022/12/07 01:41:08;;;;;;;1.08;0.63;;;3.90;99.90;;;;;;5054175;28;20036;-73
2022/12/07 01:43:34;;;;;;;0.00;0.00;;;3.90;99.90;;;;;;5028404;28;20158;-74
2022/12/07 01:46:01;;;;;;;0.38;0.25;;;3.90;99.90;;;;;;5035252;28;20052;-74
2022/12/07 01:48:39;;;;;;;5.88;0.52;;;3.90;99.90;;;;;;5032763;28;20136;-74
2022/12/07 01:51:10;;;;;;;1.55;0.30;;;4.00;99.90;;;;;;5029309;28;20043;-74
2022/12/07 01:53:39;;;;;;;4.50;0.47;;;4.00;99.90;;;;;;5046812;28;20418;-74
2022/12/07 01:56:08;;;;;;;0.90;0.28;;;4.10;99.90;;;;;;5049758;28;20370;-74
2022/12/07 01:58:34;;;;;;;0.32;0.20;;;4.10;99.90;;;;;;5047179;28;20237;-74
2022/12/07 02:01:00;;;;;;;1.10;0.30;;;4.10;99.90;;;;;;5037086;28;20044;-73
2022/12/07 02:03:34;;;;;;;0.60;0.40;;;4.10;99.90;;;;;;5034347;28;20088;-74
2022/12/07 02:06:00;;;;;;;3.10;0.55;;;4.20;99.90;;;;;;5033846;28;20044;-74
2022/12/07 02:08:26;;;;;;;1.08;0.35;;;4.20;99.90;;;;;;5046370;28;20609;-74
2022/12/07 02:10:51;;;;;;;1.77;0.22;;;4.30;99.90;;;;;;5034756;28;20465;-74
2022/12/07 02:13:22;;;;;;;0.05;0.05;;;4.20;99.90;;;;;;5035384;28;20067;-73
2022/12/07 02:15:56;;;;;;;0.15;0.15;;;4.30;99.90;;;;;;5053978;28;20037;-74
2022/12/07 02:18:46;;;;;;;0.90;0.20;;;4.30;99.90;;;;;;5050385;28;20410;-74
2022/12/07 02:21:34;;;;;;;0.40;0.20;;;4.30;99.90;;;;;;5047628;28;20419;-73
2022/12/07 02:24:30;;;;;;;2.17;0.35;;;4.30;99.90;;;;;;5042768;28;20273;-74
2022/12/07 02:27:12;;;;;;;0.00;0.00;;;4.20;99.90;;;;;;5035092;28;20048;-74
2022/12/07 02:29:54;;;;;;;6.35;0.73;;;4.20;99.90;;;;;;5035319;28;20080;-74
2022/12/07 02:32:31;;;;;;;0.35;0.13;;;4.20;99.90;;;;;;5039864;28;20060;-74
2022/12/07 02:34:57;;;;;;;0.25;0.10;;;4.20;99.90;;;;;;5041628;28;20047;-74
2022/12/07 02:37:36;;;;;;;0.95;0.50;;;4.10;99.90;;;;;;5049021;28;20045;-74
2022/12/07 02:40:12;;;;;;;4.95;0.28;;;4.10;99.90;;;;;;5044929;28;20510;-74
2022/12/07 02:42:40;;;;;;;;;;;4.00;99.90;;;;;;5036320;28;20391;-74
2022/12/07 02:45:08;;;;;;;0.65;0.35;;;4.00;99.90;;;;;;5023135;28;19924;-74
2022/12/07 02:47:35;;;;;;;2.67;0.28;;;3.90;99.90;;;;;;5034266;28;20060;-74
2022/12/07 02:50:06;;;;;;;0.85;0.20;;;3.90;99.90;;;;;;5016982;28;20041;-74
2022/12/07 02:52:32;;;;;;;0.40;0.30;;;3.90;99.90;;;;;;5033346;28;20779;-74
2022/12/07 02:54:58;;;;;;;2.38;0.40;;;3.90;99.90;;;;;;5043807;28;20106;-73
2022/12/07 02:57:37;;;;;;;0.73;0.10;;;3.80;99.90;;;;;;5019725;28;20051;-74
2022/12/07 03:00:08;;;;;;;0.35;0.35;;;3.90;99.90;;;;;;5037407;28;20049;-74
2022/12/07 03:02:56;;;;;;;0.00;0.00;;;3.90;99.90;;;;;;5050649;28;20036;-74
2022/12/07 03:05:27;;;;;;;0.93;0.25;;;3.80;99.90;;;;;;5048469;28;20038;-73
2022/12/07 03:08:15;;;;;;;2.08;0.40;;;3.80;99.90;;;;;;5041295;28;20491;-73
2022/12/07 03:10:48;;;;;;;0.60;0.20;;;3.80;99.90;;;;;;5056226;28;20494;-74
2022/12/07 03:13:32;;;;;;;1.08;0.32;;;3.80;99.90;;;;;;5061332;28;20103;-74
2022/12/07 03:16:37;;;;;;;0.47;0.13;;;3.90;99.90;;;;;;5048344;28;20073;-74
2022/12/07 03:19:10;;;;;;;3.10;0.55;;;4.00;99.90;;;;;;5061874;28;20074;-74
2022/12/07 03:21:40;;;;;;;0.00;0.00;;;4.00;99.90;;;;;;5053371;28;20055;-74
2022/12/07 03:24:11;;;;;;;0.43;0.00;;;4.00;99.90;;;;;;5056890;28;20044;-74
2022/12/07 03:26:46;;;;;;;0.25;0.10;;;3.90;99.90;;;;;;5046286;28;20091;-73
2022/12/07 03:29:18;;;;;;;0.50;0.30;;;3.90;99.90;;;;;;5057650;28;20079;-74
2022/12/07 03:31:51;;;;;;;5.10;0.65;;;3.90;99.90;;;;;;5049638;28;20033;-74
2022/12/07 03:34:27;;;;;;;0.25;0.15;;;3.90;99.90;;;;;;5049741;28;20091;-74
2022/12/07 03:37:05;;;;;;;0.82;0.40;;;3.80;99.90;;;;;;5034058;28;20052;-74
2022/12/07 03:39:57;;;;;;;0.20;0.20;;;3.80;99.90;;;;;;5027365;28;20659;-74
2022/12/07 03:42:23;;;;;;;2.78;0.10;;;3.80;99.90;;;;;;5045372;28;20060;-74
2022/12/07 03:44:49;;;;;;;1.33;0.13;;;3.80;99.90;;;;;;5047804;28;20032;-74
2022/12/07 03:47:20;;;;;;;0.00;0.00;;;3.80;99.90;;;;;;5048649;28;20098;-74
2022/12/07 03:49:56;;;;;;;2.28;0.20;;;3.80;99.90;;;;;;5017292;28;20720;-74
2022/12/07 03:52:23;;;;;;;;;;;3.80;99.90;;;;;;5036820;28;20136;-74
2022/12/07 03:54:56;;;;;;;1.35;0.43;;;3.80;99.90;;;;;;5030498;28;19959;-74
2022/12/07 03:57:24;;;;;;;7.03;0.57;;;3.80;99.90;;;;;;5039804;28;20167;-74
2022/12/07 03:59:50;;;;;;;0.65;0.22;;;3.80;99.90;;;;;;5036834;28;20092;-74
2022/12/07 04:02:17;;;;;;;3.50;0.55;;;3.70;99.90;;;;;;5029381;28;20037;-74
2022/12/07 04:04:43;;;;;;;0.65;0.20;;;3.80;99.90;;;;;;5047816;28;20128;-74
2022/12/07 04:07:09;;;;;;;0.00;0.00;;;3.80;99.90;;;;;;5029583;28;20051;-74
2022/12/07 04:09:36;;;;;;;0.22;0.20;;;3.70;99.90;;;;;;5016239;28;20048;-74
2022/12/07 04:12:02;;;;;;;0.90;0.22;;;3.70;99.90;;;;;;5036317;28;20042;-73
2022/12/07 04:14:27;;;;;;;0.25;0.17;;;3.70;99.90;;;;;;5037911;28;20750;-74
2022/12/07 04:16:58;;;;;;;1.65;0.05;;;3.70;99.90;;;;;;5010298;28;20045;-73
2022/12/07 04:19:26;;;;;;;0.00;0.00;;;3.70;99.90;;;;;;5021118;28;20061;-74
2022/12/07 04:21:52;;;;;;;0.10;0.10;;;3.70;99.90;;;;;;5033677;28;20498;-74
2022/12/07 04:24:18;;;;;;;0.00;0.00;;;3.70;99.90;;;;;;5041047;28;20051;-74
2022/12/07 04:26:44;;;;;;;1.33;0.30;;;3.70;99.90;;;;;;5027916;28;20797;-74
2022/12/07 04:29:11;;;;;;;0.28;0.03;;;3.70;99.90;;;;;;5015402;28;20045;-74
2022/12/07 04:31:37;;;;;;;0.10;0.10;;;3.70;99.90;;;;;;5013513;28;20061;-74
2022/12/07 04:34:03;;;;;;;0.75;0.15;;;3.70;99.90;;;;;;5030449;28;20402;-74
2022/12/07 04:36:30;;;;;;;0.28;0.00;;;3.60;99.90;;;;;;5046686;28;20118;-74
2022/12/07 04:38:56;;;;;;;0.10;0.03;;;3.70;99.90;;;;;;5035437;28;20569;-74
2022/12/07 04:41:26;;;;;;;0.60;0.28;;;3.60;99.90;;;;;;5033594;28;20034;-74
2022/12/07 04:44:03;;;;;;;0.47;0.32;;;3.60;99.90;;;;;;5027754;28;20538;-74
2022/12/07 04:46:30;;;;;;;4.75;0.30;;;3.60;99.90;;;;;;5041229;28;20045;-74
2022/12/07 04:48:57;;;;;;;5.18;0.20;;;3.60;99.90;;;;;;5029019;28;20527;-74
2022/12/07 04:51:26;;;;;;;0.80;0.55;;;3.50;99.90;;;;;;5049844;28;20052;-74
2022/12/07 04:53:53;;;;;;;0.10;0.00;;;3.50;99.90;;;;;;5031430;28;20048;-74
2022/12/07 04:56:19;;;;;;;4.95;0.75;;;3.60;99.90;;;;;;5027028;28;20041;-74
2022/12/07 04:58:46;;;;;;;0.20;0.10;;;3.60;99.90;;;;;;5048320;28;20025;-74
2022/12/07 05:01:13;;;;;;;0.03;0.03;;;3.60;99.90;;;;;;5032776;28;20040;-74
2022/12/07 05:03:39;;;;;;;0.00;0.00;;;3.60;99.90;;;;;;5049308;28;20513;-74
2022/12/07 05:06:06;;;;;;;0.43;0.30;;;3.60;99.90;;;;;;5060667;28;20036;-74
2022/12/07 05:08:33;;;;;;;1.80;0.10;;;3.70;99.90;;;;;;5054094;28;20036;-74
2022/12/07 05:10:59;;;;;;;0.73;0.32;;;3.70;99.90;;;;;;5054206;28;20029;-74
2022/12/07 05:13:24;;;;;;;1.92;0.10;;;3.70;99.90;;;;;;5058917;28;20055;-74
2022/12/07 05:15:50;;;;;;;1.75;0.30;;;3.80;99.90;;;;;;5043666;28;20036;-74
2022/12/07 05:18:16;;;;;;;2.60;0.43;;;3.80;99.90;;;;;;5045260;28;20037;-74
2022/12/07 05:20:42;;;;;;;0.05;0.00;;;3.80;99.90;;;;;;5051045;28;20033;-74
2022/12/07 05:23:08;;;;;;;1.65;0.25;;;3.80;99.90;;;;;;5056295;28;20037;-74
2022/12/07 05:25:34;;;;;;;0.25;0.13;;;3.90;99.90;;;;;;5058020;28;20064;-74
2022/12/07 05:27:59;;;;;;;6.18;0.80;;;3.80;99.90;;;;;;5058335;28;20067;-72
2022/12/07 05:30:26;;;;;;;0.15;0.00;;;3.80;99.90;;;;;;5051733;28;20177;-72
2022/12/07 05:32:52;;;;;;;3.50;0.20;;;3.80;99.90;;;;;;5049173;28;20029;-72
2022/12/07 05:35:18;;;;;;;0.30;0.20;;;3.80;99.90;;;;;;5030089;28;22041;-72
2022/12/07 05:37:44;;;;;;;1.17;0.10;;;3.80;99.90;;;;;;5030148;28;20041;-72
2022/12/07 05:40:11;;;;;;;0.00;0.00;;;3.80;99.90;;;;;;5032670;28;20515;-72
2022/12/07 05:42:37;;;;;;;0.00;0.00;;;3.80;99.90;;;;;;5043120;28;20052;-75
2022/12/07 05:45:03;;;;;;;0.10;0.05;;;3.80;99.90;;;;;;5038231;28;20371;-75
2022/12/07 05:47:29;;;;;;;0.00;0.00;;;3.70;99.90;;;;;;5049270;28;20047;-75
2022/12/07 05:49:54;;;;;;;0.00;0.00;;;3.70;99.90;;;;;;5050319;28;20029;-75
2022/12/07 05:52:20;;;;;;;5.72;0.43;;;3.70;99.90;;;;;;5033893;28;20529;-75
2022/12/07 05:54:46;;;;;;;1.75;0.32;;;3.70;99.90;;;;;;5032324;28;20461;-75
2022/12/07 05:57:11;;;;;;;0.45;0.32;;;3.60;99.90;;;;;;5036261;28;20631;-75
2022/12/07 05:59:37;;;;;;;0.03;0.03;;;3.60;99.90;;;;;;5035757;28;20048;-75
2022/12/07 06:02:06;;;;;;;0.10;0.10;;;3.60;99.90;;;;;;5023824;28;20075;-75
2022/12/07 06:04:35;;;;;;;0.20;0.20;;;3.50;99.90;;;;;;5034364;28;20121;-75
2022/12/07 06:07:01;;;;;;;0.95;0.38;;;3.50;99.90;;;;;;5049686;28;20072;-75
2022/12/07 06:09:28;;;;;;;0.13;0.10;;;3.50;99.90;;;;;;5043826;28;20074;-75
2022/12/07 06:14:39;;;;;;;3.00;0.25;;;3.40;99.90;;;;;;5028893;28;20541;-75
2022/12/07 06:17:06;;;;;;;0.20;0.20;;;3.40;99.90;;;;;;5034989;28;20140;-74
2022/12/07 06:19:31;;;;;;;2.60;0.35;;;3.30;99.90;;;;;;5052116;28;20386;-75
2022/12/07 06:21:57;;;;;;;0.15;0.10;;;3.30;99.90;;;;;;5034146;28;20040;-74
2022/12/07 06:24:23;;;;;;;2.60;0.20;;;3.30;99.90;;;;;;5038289;28;20024;-75
2022/12/07 06:26:49;;;;;;;0.35;0.30;;;3.30;99.90;;;;;;5014090;28;20036;-74
2022/12/07 06:29:19;;;;;;;0.08;0.08;;;3.30;99.90;;;;;;5036515;28;20041;-74
2022/12/07 06:31:44;;;;;;;0.90;0.15;;;3.20;99.90;;;;;;5030783;28;20052;-74
2022/12/07 06:34:13;;;;;;;0.32;0.15;;;3.20;99.90;;;;;;5051859;28;20037;-75
2022/12/07 06:36:39;;;;;;;0.05;0.05;;;3.20;99.90;;;;;;5017911;28;20133;-74
2022/12/07 06:39:07;;;;;;;0.15;0.10;;;3.20;99.90;;;;;;5035500;28;20045;-74
2022/12/07 06:41:33;;;;;;;1.08;0.75;;;3.20;99.90;;;;;;5036427;28;20168;-74
2022/12/07 06:43:58;;;;;;;0.08;0.08;;;3.20;99.90;;;;;;5047170;28;20119;-75
2022/12/07 06:46:24;;;;;;;0.52;0.05;;;3.20;99.90;;;;;;5042462;28;20487;-75
2022/12/07 06:48:50;;;;;;;0.00;0.00;;;3.20;99.90;;;;;;5053607;28;20395;-75
2022/12/07 06:51:16;;;;;;;0.47;0.00;;;3.20;99.90;;;;;;5042474;28;20523;-74
2022/12/07 06:53:41;;;;;;;1.38;0.15;;;3.20;99.90;;;;;;5052850;28;20032;-75
2022/12/07 06:56:07;;;;;;;1.98;0.88;;;3.20;99.90;;;;;;5035037;28;20051;-75
2022/12/07 06:58:33;;;;;;;0.25;0.15;;;3.20;99.90;;;;;;5038818;28;20032;-75
2022/12/07 07:00:59;;;;;;;0.65;0.25;;;3.30;99.90;;;;;;5025949;28;20124;-75
2022/12/07 07:03:24;;;;;;;2.47;0.20;;;3.30;99.90;;;;;;5059651;28;20138;-75
2022/12/07 07:05:50;;;;;;;0.00;0.00;;;3.30;99.90;;;;;;5056723;28;20055;-75
2022/12/07 07:08:15;;;;;;;0.43;0.20;;;3.30;99.90;;;;;;5057426;28;20139;-75
2022/12/07 07:10:41;;;;;;;0.55;0.40;;;3.30;99.90;;;;;;5044336;28;20093;-77
2022/12/07 07:13:07;;;;;;;8.68;1.45;;;3.30;99.90;;;;;;5024352;28;20045;-76
2022/12/07 07:15:34;;;;;;;0.70;0.30;;;3.30;99.90;;;;;;5050469;28;20032;-78
2022/12/07 07:17:59;;;;;;;0.00;0.00;;;3.30;99.90;;;;;;5060208;28;20435;-77
2022/12/07 07:20:25;;;;;;;1.27;0.80;;;3.40;99.90;;;;;;5031635;28;20122;-75
2022/12/07 07:22:54;;;;;;;0.10;0.10;;;3.40;99.90;;;;;;5040315;28;20029;-75
2022/12/07 07:25:19;;;;;;;0.43;0.15;;;3.30;99.90;;;;;;5032780;28;20149;-75
2022/12/07 07:27:45;;;;;;;3.10;0.47;;;3.30;99.90;;;;;;5040131;28;20044;-74
2022/12/07 07:30:11;;;;;;;0.28;0.20;;;3.30;99.90;;;;;;5027940;28;20045;-75
2022/12/07 07:32:36;;;;;;;0.45;0.10;;;3.30;99.90;;;;;;5056199;28;20451;-74
2022/12/07 07:35:02;;;;;;;0.28;0.15;;;3.30;99.90;;;;;;5057506;28;20040;-75
2022/12/07 07:37:28;;;;;;;0.80;0.30;;;3.30;99.90;;;;;;5056690;28;20565;-75
2022/12/07 07:39:54;;;;;;;0.15;0.15;;;3.30;99.90;;;;;;5041642;28;20115;-75
2022/12/07 07:42:19;;;;;;;1.15;0.47;;;3.30;99.90;;;;;;5055118;28;20119;-75
2022/12/07 07:44:45;;;;;;;1.83;0.40;;;3.30;99.90;;;;;;5051999;28;20036;-75
2022/12/07 07:47:10;;;;;;;0.93;0.52;;;3.30;99.90;;;;;;5033424;28;20119;-75
2022/12/07 07:49:36;;;;;;;0.10;0.08;;;3.30;99.90;;;;;;5060140;28;20047;-75
2022/12/07 07:52:02;;;;;;;0.25;0.20;;;3.30;99.90;;;;;;5050439;28;20071;-75
2022/12/07 07:54:27;;;;;;;6.03;1.20;;;3.40;99.90;;;;;;5054092;28;20390;-75
2022/12/07 07:56:53;;;;;;;4.80;0.47;;;3.30;99.90;;;;;;5050931;28;20045;-75
2022/12/07 07:59:19;;;;;;;0.57;0.32;;;3.40;99.90;;;;;;5038928;28;20082;-75
2022/12/07 08:01:44;;;;;;;0.55;0.20;;;3.40;99.90;;;;;;5051673;28;20425;-75
2022/12/07 08:04:10;;;;;;;0.10;0.10;;;3.40;99.90;;;;;;5038335;28;20123;-75
2022/12/07 08:06:35;;;;;;;0.20;0.10;;;3.40;99.90;;;;;;5044829;28;20044;-75
2022/12/07 08:09:01;;;;;;;1.58;0.40;;;3.40;99.90;;;;;;5051108;28;20037;-75
2022/12/07 08:11:27;;;;;;;1.08;0.47;;;3.40;99.90;;;;;;5031375;28;20428;-75
2022/12/07 08:13:52;;;;;;;8.80;0.60;;;3.40;99.90;;;;;;5051236;28;20489;-75
2022/12/07 08:16:18;;;;;;;2.72;0.50;;;3.40;99.90;;;;;;5038458;28;20054;-75
2022/12/07 08:18:43;;;;;;;1.35;0.10;;;3.40;99.90;;;;;;5044570;28;20402;-75
2022/12/07 08:21:14;;;;;;;2.45;0.50;;;3.40;99.90;;;;;;5043864;28;20040;-75
2022/12/07 08:23:40;;;;;;;1.63;0.10;;;3.40;99.90;;;;;;5046283;28;20435;-72
2022/12/07 08:26:08;;;;;;;1.00;0.22;;;3.40;99.90;;;;;;5047815;28;20059;-72
2022/12/07 08:28:34;;;;;;;0.00;0.00;;;3.30;99.90;;;;;;5041516;28;20073;-72
2022/12/07 08:31:05;;;;;;;0.88;0.17;;;3.30;99.90;;;;;;5035605;28;20084;-72
2022/12/07 08:33:32;;;;;;;2.53;0.50;;;3.20;99.90;;;;;;5039032;28;20091;-72
2022/12/07 08:36:06;;;;;;;1.25;0.20;;;3.20;99.90;;;;;;5039692;28;20032;-73
2022/12/07 08:38:34;;;;;;;0.00;0.00;;;3.20;99.90;;;;;;5036226;28;20128;-72
2022/12/07 08:41:00;;;;;;;6.70;0.50;;;3.30;99.90;;;;;;5032933;28;20040;-72
2022/12/07 08:43:26;;;;;;;0.00;0.00;;;3.30;99.90;;;;;;5045541;28;20550;-72
2022/12/07 08:46:09;;;;;;;0.32;0.20;;;3.30;99.90;;;;;;5031738;28;20030;-72
2022/12/07 08:48:43;;;;;;;0.45;0.20;;;3.40;99.90;;;;;;5051316;28;20064;-73
2022/12/07 08:51:09;;;;;;;0.08;0.08;;;3.40;99.90;;;;;;5030464;28;20395;-72
2022/12/07 08:53:36;;;;;;;0.35;0.35;;;3.40;99.90;;;;;;5048090;28;20048;-73
2022/12/07 08:56:02;;;;;;;5.00;0.20;;;3.50;99.90;;;;;;5034491;28;20056;-73
2022/12/07 08:58:27;;;;;;;0.75;0.20;;;3.50;99.90;;;;;;5053714;28;20025;-73
2022/12/07 09:00:53;;;;;;;0.45;0.20;;;3.60;99.90;;;;;;5051685;28;20044;-73
2022/12/07 09:03:18;;;;;;;0.70;0.40;;;3.60;99.90;;;;;;5058944;28;20083;-73
2022/12/07 09:05:44;;;;;;;0.28;0.22;;;3.60;99.90;;;;;;5037852;28;20612;-73
2022/12/07 09:08:10;;;;;;;3.10;0.20;;;3.60;99.90;;;;;;5050615;28;20052;-73
2022/12/07 09:10:35;;;;;;;0.10;0.10;;;3.60;99.90;;;;;;5053522;28;20499;-73
2022/12/07 09:13:01;;;;;;;0.10;0.10;;;3.60;99.90;;;;;;5060009;28;20127;-73
2022/12/07 09:15:31;;;;;;;5.85;0.22;;;3.60;99.90;;;;;;5049915;28;20043;-73
2022/12/07 09:17:57;;;;;;;2.83;0.10;;;3.60;99.90;;;;;;5057715;28;20041;-73
2022/12/07 09:20:22;;;;;;;1.65;0.50;;;3.60;99.90;;;;;;5055614;28;20544;-73
2022/12/07 09:22:48;;;;;;;0.17;0.10;;;3.60;99.90;;;;;;5060342;28;20037;-73
2022/12/07 09:25:14;;;;;;;0.10;0.10;;;3.70;99.90;;;;;;5053864;28;20116;-73
2022/12/07 09:27:40;;;;;;;0.10;0.00;;;3.70;99.90;;;;;;5060979;28;20139;-73
2022/12/07 09:30:07;;;;;;;1.65;0.40;;;3.80;99.90;;;;;;5055726;28;20442;-73
2022/12/07 09:32:32;;;;;;;3.72;0.63;;;3.80;99.90;;;;;;5049116;28;20049;-73
2022/12/07 09:34:58;;;;;;;2.72;0.43;;;3.80;99.90;;;;;;5050807;28;20037;-73
2022/12/07 09:37:23;;;;;;;6.53;0.80;;;3.80;99.90;;;;;;5035981;28;20037;-73
2022/12/07 09:39:49;;;;;;;1.13;0.25;;;3.80;99.90;;;;;;5035942;28;20505;-73
2022/12/07 09:42:29;;;;;;;1.98;0.30;;;3.80;99.90;;;;;;5057103;28;20068;-73
2022/12/07 09:44:55;;;;;;;0.30;0.10;;;3.80;99.90;;;;;;5038405;28;20331;-73
2022/12/07 09:47:21;;;;;;;0.93;0.68;;;3.80;99.90;;;;;;5043871;28;20652;-73
2022/12/07 09:49:47;;;;;;;0.98;0.55;;;3.90;99.90;;;;;;5037762;28;20066;-73
2022/12/07 09:52:12;;;;;;;0.77;0.40;;;3.90;99.90;;;;;;5031383;28;20045;-73
2022/12/07 09:54:43;;;;;;;0.75;0.38;;;3.90;99.90;;;;;;5030553;28;20038;-73
2022/12/07 09:57:12;;;;;;;1.17;0.35;;;4.00;99.90;;;;;;5039803;28;20563;-73
2022/12/07 09:59:38;;;;;;;2.80;0.50;;;4.10;99.90;;;;;;5042005;28;20727;-73
2022/12/07 10:02:35;;;;;;;0.52;0.10;;;4.10;99.90;;;;;;5043283;28;20427;-73
2022/12/07 10:05:04;;;;;;;0.03;0.03;;;4.20;99.90;;;;;;5029271;28;20042;-73
2022/12/07 10:07:29;;;;;;;0.20;0.10;;;4.20;99.90;;;;;;5034947;28;20037;-73
2022/12/07 10:09:55;;;;;;;6.97;0.70;;;4.20;99.90;;;;;;5031766;28;20119;-73
2022/12/07 10:12:21;;;;;;;0.20;0.20;;;4.20;99.90;;;;;;5046391;28;20383;-73
2022/12/07 10:14:56;;;;;;;0.50;0.20;;;4.20;99.90;;;;;;5038408;28;20071;-73
2022/12/07 10:17:40;;;;;;;3.60;1.00;;;4.20;99.90;;;;;;5044518;28;20036;-73
2022/12/07 10:20:19;;;;;;;0.10;0.05;;;4.20;99.90;;;;;;5029522;28;20041;-73
2022/12/07 10:23:05;;;;;;;0.75;0.50;;;4.30;99.90;;;;;;5052873;28;20064;-73
2022/12/07 10:25:34;;;;;;;0.00;0.00;;;4.30;99.90;;;;;;5049767;28;20044;-72
2022/12/07 10:28:07;;;;;;;0.70;0.30;;;4.30;99.90;;;;;;5048609;28;20048;-72
2022/12/07 10:30:45;;;;;;;1.45;0.45;;;4.30;99.90;;;;;;5053094;28;20513;-72
2022/12/07 10:33:34;;;;;;;0.20;0.20;;;4.30;99.90;;;;;;5037256;28;20084;-73
2022/12/07 10:36:17;;;;;;;0.63;0.15;;;4.40;99.90;;;;;;5054370;28;20519;-73
2022/12/07 10:39:00;;;;;;;1.65;0.22;;;4.40;99.90;;;;;;5029638;28;20059;-73
2022/12/07 10:41:26;;;;;;;4.60;1.65;;;4.40;99.90;;;;;;5045986;28;20039;-72
2022/12/07 10:43:56;;;;;;;3.20;1.08;;;4.40;99.90;;;;;;5033323;28;20040;-75
2022/12/07 10:46:37;;;;;;;44.78;18.27;;;4.40;99.90;;;;;;5049009;28;20058;-75
2022/12/07 10:49:25;;;;;;;4.25;2.80;;;4.50;99.90;;;;;;5045710;28;20044;-75
2022/12/07 10:52:17;;;;;;;1.73;0.80;;;4.50;99.90;;;;;;5055191;28;20127;-75
2022/12/07 10:55:15;;;;;;;3.25;0.57;;;4.50;99.90;;;;;;5037945;28;20103;-75
2022/12/07 10:58:06;;;;;;;3.15;1.38;;;4.50;99.90;;;;;;5055227;28;20112;-75
2022/12/07 11:00:47;;;;;;;6.25;3.40;;;4.50;99.90;;;;;;5047473;28;20036;-75
2022/12/07 11:03:38;;;;;;;5.75;2.55;;;4.50;99.90;;;;;;5053219;28;20210;-75
2022/12/07 11:06:17;;;;;;;0.93;0.50;;;4.50;99.90;;;;;;5051955;28;20041;-75
2022/12/07 11:09:01;;;;;;;4.43;2.13;;;4.50;99.90;;;;;;5055714;28;20048;-75
2022/12/07 11:11:51;;;;;;;22.23;12.25;;;4.50;99.90;;;;;;5048674;28;20093;-75
2022/12/07 11:14:24;;;;;;;2.75;0.90;;;4.50;99.90;;;;;;5032187;28;20073;-75
2022/12/07 11:17:05;;;;;;;3.90;1.58;;;4.50;99.90;;;;;;5043048;28;20398;-75
2022/12/07 11:19:51;;;;;;;3.08;2.05;;;4.60;99.90;;;;;;5035815;28;20047;-75
2022/12/07 11:22:24;;;;;;;11.95;4.93;;;4.60;99.90;;;;;;5028427;28;20763;-75
2022/12/07 11:25:10;;;;;;;1.63;0.68;;;4.60;99.90;;;;;;5033642;28;20041;-75
2022/12/07 11:28:21;;;;;;;1.35;0.80;;;4.60;99.90;;;;;;5054073;28;20055;-75
2022/12/07 11:31:09;;;;;;;1.98;0.52;;;4.70;99.90;;;;;;5032308;28;20135;-75
2022/12/07 11:33:52;;;;;;;0.30;0.13;;;4.70;99.90;;;;;;5028350;28;20513;-76
2022/12/07 11:36:37;;;;;;;1.23;0.50;;;4.70;99.90;;;;;;5029084;28;20060;-73
2022/12/07 11:39:25;;;;;;;0.98;0.20;;;4.70;99.90;;;;;;5048896;28;20041;-72
2022/12/07 11:42:00;;;;;;;0.95;0.65;;;4.70;99.90;;;;;;5042470;28;20080;-73
2022/12/07 11:44:44;;;;;;;4.43;1.02;;;4.80;99.90;;;;;;5038883;28;20041;-72
2022/12/07 11:47:16;;;;;;;0.65;0.55;;;4.80;99.90;;;;;;5059115;28;20541;-72
2022/12/07 11:49:53;;;;;;;2.33;0.22;;;4.80;99.90;;;;;;5030427;28;20534;-72
2022/12/07 11:52:19;;;;;;;0.47;0.20;;;4.90;99.90;;;;;;5037860;28;20052;-72
2022/12/07 11:54:48;;;;;;;1.67;0.30;;;4.90;99.90;;;;;;5047302;28;20049;-72
2022/12/07 11:57:27;;;;;;;1.83;0.32;;;5.00;99.90;;;;;;5035822;28;20091;-72
2022/12/07 12:00:00;;;;;;;0.52;0.45;;;5.10;99.90;;;;;;5046971;28;20041;-72
2022/12/07 12:02:47;;;;;;;2.63;0.38;;;5.20;99.90;;;;;;5042470;28;20037;-72
2022/12/07 12:05:15;;;;;;;;;;;5.20;99.90;;;;;;5039425;28;20148;-72
2022/12/07 12:07:42;;;;;;;2.60;0.68;;;5.20;99.90;;;;;;5023367;28;20382;-73
2022/12/07 12:10:24;;;;;;;0.80;0.20;;;5.30;99.90;;;;;;5024077;28;20049;-72
2022/12/07 12:13:10;;;;;;;2.55;0.70;;;5.20;99.90;;;;;;5037361;28;20056;-72
2022/12/07 12:15:46;;;;;;;3.10;0.40;;;5.20;99.90;;;;;;5049167;28;20045;-73
2022/12/07 12:18:19;;;;;;;0.20;0.10;;;5.20;99.90;;;;;;5034502;28;20542;-72
2022/12/07 12:21:00;;;;;;;2.55;1.02;;;5.20;99.90;;;;;;5039452;28;20049;-75
2022/12/07 12:23:44;;;;;;;1.30;0.32;;;5.20;99.90;;;;;;5034907;28;20047;-75
2022/12/07 12:26:22;;;;;;;1.55;0.45;;;5.30;99.90;;;;;;5054762;28;20045;-75
2022/12/07 12:28:58;;;;;;;0.20;0.10;;;5.30;99.90;;;;;;5046404;28;20049;-75
2022/12/07 12:31:27;;;;;;;0.65;0.45;;;5.30;99.90;;;;;;5046335;28;20071;-75
2022/12/07 12:34:32;;;;;;;0.65;0.35;;;5.30;99.90;;;;;;5042226;28;20065;-75
2022/12/07 12:36:59;;;;;;;3.95;0.82;;;5.30;99.90;;;;;;5023186;28;20049;-75
2022/12/07 12:39:25;;;;;;;0.73;0.52;;;5.30;99.90;;;;;;5044556;28;20089;-75
2022/12/07 12:44:22;;;;;;;1.17;0.88;;;5.30;99.90;;;;;;5049460;28;20162;-75
2022/12/07 12:46:57;;;;;;;2.20;0.75;;;5.20;99.90;;;;;;5049976;28;20068;-75
2022/12/07 12:49:22;;;;;;;0.50;0.10;;;5.30;99.90;;;;;;5035396;28;20040;-74
2022/12/07 12:51:53;;;;;;;1.50;0.50;;;5.30;99.90;;;;;;5045020;28;20128;-75
2022/12/07 12:54:32;;;;;;;3.30;0.52;;;5.30;99.90;;;;;;5031812;28;20130;-72
2022/12/07 12:57:29;;;;;;;0.10;0.10;;;5.20;99.90;;;;;;5036586;28;20037;-72
2022/12/07 12:59:58;;;;;;;1.65;0.73;;;5.20;99.90;;;;;;5044925;28;20074;-72
2022/12/07 13:02:49;;;;;;;1.30;0.55;;;5.20;99.90;;;;;;5040204;28;20041;-72
2022/12/07 13:05:21;;;;;;;1.92;0.50;;;5.20;99.90;;;;;;5048690;28;20712;-72
2022/12/07 13:07:57;;;;;;;1.17;0.35;;;5.20;99.90;;;;;;5042798;28;20095;-72
2022/12/07 13:10:39;;;;;;;4.07;0.43;;;5.20;99.90;;;;;;5055979;28;20529;-72
2022/12/07 13:13:12;;;;;;;0.00;0.00;;;5.20;99.90;;;;;;5036160;28;20061;-71
2022/12/07 13:15:51;;;;;;;0.00;0.00;;;5.20;99.90;;;;;;5028215;28;20045;-73
2022/12/07 13:18:26;;;;;;;3.10;0.28;;;5.20;99.90;;;;;;5055900;28;20041;-72
2022/12/07 13:21:07;;;;;;;0.55;0.20;;;5.10;99.90;;;;;;5046384;28;20465;-72